Time;durP1;ratioP1;P1;durP2;ratioP2;P2;SDS_P1;SDS_P2;PMS_P1;PMS_P2;Temp;Humidity;BMP_temperature;BMP_pressure;BME280_temperature;BME280_humidity;BME280_pressure;Samples;Min_cycle;Max_cycle;Signal;HPM_P1;HPM_P2
2022/12/07 10:43:11;;;;;;;;;;;;;;;;;;6116760;23;19924;-81
2022/12/07 10:45:54;;;;;;;;;;;;;;;;;;6098269;23;19999;-82
2022/12/07 10:48:23;;;;;;;;;;;;;;;;;;6098171;23;19951;-76
2022/12/07 10:51:02;;;;;;;;;;;;;;;;;;6098146;23;20244;-76
2022/12/07 10:53:46;;;;;;;;;;;;;;;;;;6098594;23;19916;-80
2022/12/07 10:56:21;;;;;;;;;;;;;;;;;;6099081;23;19913;-76
2022/12/07 10:59:01;;;;;;;;;;;;;;;;;;6098038;23;19909;-76
2022/12/07 11:01:59;;;;;;;;;;;;;;;;;;6098120;23;20241;-80
2022/12/07 11:04:30;;;;;;;;;;;;;;;;;;6034714;23;19915;-81
2022/12/07 11:07:14;;;;;;;;;;;;;;;;;;6098046;23;19909;-80
2022/12/07 11:09:39;;;;;;;;;;;;;;;;;;6097793;23;19964;-80
2022/12/07 11:12:17;;;;;;;;;;;;;;;;;;6099051;23;19909;-82
2022/12/07 11:14:42;;;;;;;;;;;;;;;;;;6101440;23;19940;-77
2022/12/07 11:17:13;;;;;;;;;;;;;;;;;;6101295;23;19909;-80
2022/12/07 11:19:50;;;;;;;;;;;;;;;;;;6101081;23;19916;-77
2022/12/07 11:22:25;;;;;;;;;;;;;;;;;;6101589;23;20357;-81
2022/12/07 11:24:50;;;;;;;;;;;;;;;;;;6101324;23;19909;-78
2022/12/07 11:27:19;;;;;;;;;;;;;;;;;;6101178;23;19916;-85
2022/12/07 11:29:44;;;;;;;;;;;;;;;;;;6101038;23;20321;-80
2022/12/07 11:32:19;;;;;;;;;;;;;;;;;;6101233;23;19916;-81
2022/12/07 11:34:47;;;;;;;;;;;;;;;;;;6099570;23;19965;-77
2022/12/07 11:37:21;;;;;;;;;;;;;;;;;;6100991;23;20313;-77
2022/12/07 11:39:55;;;;;;;;;;;;;;;;;;6101201;23;19910;-84
2022/12/07 11:42:29;;;;;;;;;;;;;;;;;;6101349;23;19909;-84
2022/12/07 11:44:57;;;;;;;;;;;;;;;;;;6100965;23;19917;-77
2022/12/07 11:47:27;;;;;;;;;;;;;;;;;;6100976;23;19932;-77
2022/12/07 11:49:58;;;;;;;;;;;;;;;;;;6101313;23;19969;-78
2022/12/07 11:52:42;;;;;;;;;;;;;;;;;;6101173;23;19909;-77
2022/12/07 11:55:24;;;;;;;;;;;;;;;;;;6100971;23;19916;-80
2022/12/07 11:57:53;;;;;;;;;;;;;;;;;;6099873;23;20239;-77
2022/12/07 12:00:18;;;;;;;;;;;;;;;;;;6100944;23;19909;-83
2022/12/07 12:02:49;;;;;;;;;;;;;;;;;;6101255;23;19909;-85
2022/12/07 12:05:16;;;;;;;;;;;;;;;;;;6101010;23;19909;-78
2022/12/07 12:07:43;;;;;;;;;;;;;;;;;;6100953;23;20000;-80
2022/12/07 12:10:26;;;;;;;;;;;;;;;;;;6101138;23;19932;-83
2022/12/07 12:12:54;;;;;;;;;;;;;;;;;;6100966;23;19913;-83
2022/12/07 12:15:38;;;;;;;;;;;;;;;;;;6100947;23;19989;-83
2022/12/07 12:18:09;;;;;;;;;;;;;;;;;;6100830;23;19917;-76
2022/12/07 12:20:41;;;;;;;2.40;2.20;;;;;;;;;;6100946;23;19913;-84
2022/12/07 12:23:29;;;;;;;2.30;2.10;;;;;;;;;;6100095;23;20303;-83
2022/12/07 12:26:01;;;;;;;2.20;2.00;;;;;;;;;;6068262;23;20006;-84
2022/12/07 12:28:35;;;;;;;2.20;2.00;;;;;;;;;;6098894;23;20007;-76
2022/12/07 12:31:19;;;;;;;2.20;2.00;;;;;;;;;;6098864;23;20063;-80
2022/12/07 12:33:56;;;;;;;2.47;2.03;;;;;;;;;;6099106;23;19998;-89
2022/12/07 12:36:43;;;;;;;2.30;2.10;;;;;;;;;;6100364;23;20091;-86
2022/12/07 12:39:13;;;;;;;2.33;1.90;;;;;;;;;;6098778;23;20084;-89
2022/12/07 12:42:05;;;;;;;3.13;2.33;;;;;;;;;;6099146;23;20013;-79
2022/12/07 12:44:33;;;;;;;4.25;2.20;;;;;;;;;;6098612;23;20022;-87
2022/12/07 12:47:41;;;;;;;2.90;1.73;;;;;;;;;;6098789;23;20013;-92
2022/12/07 12:50:21;;;;;;;2.10;1.95;;;;;;;;;;6098991;23;20334;-91
2022/12/07 12:52:55;;;;;;;2.45;2.10;;;;;;;;;;6099291;23;20010;-92
2022/12/07 12:55:41;;;;;;;1.95;1.55;;;;;;;;;;6099642;23;20009;-90
2022/12/07 17:18:42;;;;;;;;;;;;;;;;;;6138174;23;19917;-80
2022/12/07 17:21:09;;;;;;;;;;;;;;;;;;6157224;23;19944;-81
2022/12/07 17:23:34;;;;;;;;;;;;;;;;;;6155094;23;20275;-81
2022/12/07 17:26:04;;;;;;;;;;;;;;;;;;6157462;23;19912;-79
2022/12/07 17:28:29;;;;;;;;;;;;;;;;;;6157388;23;19940;-78
2022/12/07 17:30:55;;;;;;;;;;;;;;;;;;6157694;23;19908;-80
2022/12/07 17:33:21;;;;;;;;;;;;;;;;;;6157542;23;19908;-82
2022/12/07 17:35:46;;;;;;;;;;;;;;;;;;6155882;23;19908;-80
2022/12/07 17:38:11;;;;;;;;;;;;;;;;;;6157323;23;20280;-81
2022/12/07 17:40:37;;;;;;;;;;;;;;;;;;6157581;23;19955;-80
2022/12/07 17:43:02;;;;;;;;;;;;;;;;;;6157453;23;19915;-80
2022/12/07 17:45:27;;;;;;;;;;;;;;;;;;6131121;23;19913;-79
2022/12/07 17:47:53;;;;;;;;;;;;;;;;;;6157029;23;20274;-77
2022/12/07 17:53:09;;;;;;;;;;;;;;;;;;6156740;23;19931;-80
2022/12/07 17:53:09;;;;;;;;;;;;;;;;;;6156790;23;20316;-80
2022/12/07 17:55:35;;;;;;;;;;;;;;;;;;6157295;23;19944;-78
2022/12/07 17:58:00;;;;;;;;;;;;;;;;;;6157544;23;19911;-78
2022/12/07 18:00:25;;;;;;;;;;;;;;;;;;6157038;23;19962;-79
2022/12/07 18:02:51;;;;;;;;;;;;;;;;;;6156899;23;19904;-81
2022/12/07 18:05:16;;;;;;;;;;;;;;;;;;6156844;23;19916;-80
2022/12/07 18:07:42;;;;;;;;;;;;;;;;;;6156731;23;19909;-80
2022/12/07 18:10:08;;;;;;;;;;;;;;;;;;6157358;23;20006;-81
2022/12/07 18:12:33;;;;;;;;;;;;;;;;;;6157215;23;19956;-81
2022/12/07 18:14:59;;;;;;;;;;;;;;;;;;6157085;23;20259;-81
2022/12/07 18:17:24;;;;;;;;;;;;;;;;;;6157093;23;20290;-81
2022/12/07 18:19:49;;;;;;;;;;;;;;;;;;6157153;23;19920;-81
2022/12/07 18:22:15;;;;;;;;;;;;;;;;;;6155030;23;19909;-81
2022/12/07 18:24:40;;;;;;;;;;;;;;;;;;6157241;23;20335;-81
2022/12/07 18:27:06;;;;;;;;;;;;;;;;;;6156900;23;20004;-82
2022/12/07 18:29:31;;;;;;;;;;;;;;;;;;6156982;23;19909;-82
2022/12/07 18:31:56;;;;;;;;;;;;;;;;;;6156959;23;19908;-83
2022/12/07 18:34:22;;;;;;;;;;;;;;;;;;6157145;23;20328;-82
2022/12/07 18:36:51;;;;;;;;;;;;;;;;;;6157120;23;19909;-82
2022/12/07 18:39:17;;;;;;;;;;;;;;;;;;6157003;23;19909;-81
2022/12/07 18:41:43;;;;;;;;;;;;;;;;;;6156799;23;19909;-82
2022/12/07 18:44:08;;;;;;;;;;;;;;;;;;6156910;23;19940;-83
2022/12/07 18:46:34;;;;;;;;;;;;;;;;;;6156753;23;20338;-81
2022/12/07 18:48:59;;;;;;;;;;;;;;;;;;6156825;23;19913;-81
2022/12/07 18:51:26;;;;;;;;;;;;;;;;;;6156977;23;20035;-83
2022/12/07 18:53:51;;;;;;;;;;;;;;;;;;6156792;23;20011;-81
2022/12/07 18:56:18;;;;;;;;;;;;;;;;;;6157030;23;20333;-83
2022/12/07 19:01:31;;;;;;;;;;;;;;;;;;6156976;23;20343;-81
2022/12/07 19:03:58;;;;;;;;;;;;;;;;;;6156960;23;19912;-82
2022/12/07 19:06:23;;;;;;;;;;;;;;;;;;6156637;23;19908;-81
2022/12/07 19:08:48;;;;;;;;;;;;;;;;;;6156634;23;20283;-80
2022/12/07 19:14:05;;;;;;;;;;;;;;;;;;6157087;23;20243;-80
2022/12/07 19:16:30;;;;;;;;;;;;;;;;;;6156733;23;19987;-80
2022/12/07 19:18:56;;;;;;;;;;;;;;;;;;6156939;23;20316;-81
2022/12/07 19:21:21;;;;;;;;;;;;;;;;;;6156711;23;19916;-82
2022/12/07 19:23:46;;;;;;;;;;;;;;;;;;6156671;23;19908;-81
2022/12/07 19:26:11;;;;;;;;;;;;;;;;;;6156616;23;19916;-80
2022/12/07 19:28:37;;;;;;;;;;;;;;;;;;6156618;23;19915;-83
2022/12/07 19:31:10;;;;;;;;;;;;;;;;;;6157059;23;19932;-80
2022/12/07 19:33:36;;;;;;;;;;;;;;;;;;6157429;23;19990;-81
2022/12/07 19:36:01;;;;;;;;;;;;;;;;;;6158383;23;19912;-81
2022/12/07 19:38:29;;;;;;;;;;;;;;;;;;6158626;23;19908;-82
2022/12/07 19:40:54;;;;;;;;;;;;;;;;;;6158683;23;19915;-81
2022/12/07 19:43:19;;;;;;;;;;;;;;;;;;6159014;23;20247;-83
2022/12/07 19:45:45;;;;;;;;;;;;;;;;;;6158683;23;19988;-80
2022/12/07 19:48:11;;;;;;;;;;;;;;;;;;6158515;23;19987;-81
2022/12/07 19:50:36;;;;;;;;;;;;;;;;;;6158662;23;19908;-82
2022/12/07 19:53:01;;;;;;;;;;;;;;;;;;6158390;23;19915;-81
2022/12/07 19:55:27;;;;;;;;;;;;;;;;;;6158405;23;19924;-82
2022/12/07 19:57:52;;;;;;;;;;;;;;;;;;6158695;23;19908;-83
2022/12/07 20:00:18;;;;;;;;;;;;;;;;;;6158456;23;19962;-81
2022/12/07 20:02:43;;;;;;;;;;;;;;;;;;6132220;23;19955;-82
2022/12/07 20:05:08;;;;;;;;;;;;;;;;;;6158456;23;20308;-82
2022/12/07 20:07:37;;;;;;;;;;;;;;;;;;6158179;23;19908;-82
2022/12/07 20:10:03;;;;;;;;;;;;;;;;;;6158194;23;19909;-81
2022/12/07 20:15:13;;;;;;;;;;;;;;;;;;6158324;23;19916;-81
2022/12/07 20:17:38;;;;;;;;;;;;;;;;;;6158246;23;19917;-82
2022/12/07 20:20:04;;;;;;;;;;;;;;;;;;6157831;23;19986;-82
2022/12/07 20:22:29;;;;;;;;;;;;;;;;;;6158515;23;19916;-80
2022/12/07 20:24:54;;;;;;;;;;;;;;;;;;6158273;23;20312;-80
2022/12/07 20:27:20;;;;;;;;;;;;;;;;;;6158101;23;19912;-78
2022/12/07 20:29:45;;;;;;;;;;;;;;;;;;6158164;23;19908;-80
2022/12/07 20:32:12;;;;;;;;;;;;;;;;;;6158112;23;20003;-78
2022/12/07 20:34:37;;;;;;;;;;;;;;;;;;6157979;23;19913;-78
2022/12/07 20:37:03;;;;;;;;;;;;;;;;;;6158045;23;19915;-80
2022/12/07 20:39:28;;;;;;;;;;;;;;;;;;6157983;23;19932;-80
2022/12/07 20:44:37;;;;;;;;;;;;;;;;;;6157648;23;19944;-78
2022/12/07 20:47:03;;;;;;;;;;;;;;;;;;6157841;23;20256;-80
2022/12/07 20:49:29;;;;;;;;;;;;;;;;;;6157934;23;19908;-80
2022/12/07 20:51:54;;;;;;;;;;;;;;;;;;6158267;23;19916;-81
2022/12/07 20:54:19;;;;;;;;;;;;;;;;;;6158163;23;19991;-80
2022/12/07 20:56:45;;;;;;;;;;;;;;;;;;6157775;23;19915;-79
2022/12/07 20:59:12;;;;;;;;;;;;;;;;;;6157938;23;19920;-80
2022/12/07 21:01:37;;;;;;;;;;;;;;;;;;6157842;23;19952;-80
2022/12/07 21:04:02;;;;;;;;;;;;;;;;;;6158102;23;20271;-80
2022/12/07 21:06:28;;;;;;;;;;;;;;;;;;6157570;23;19932;-79
2022/12/07 21:08:55;;;;;;;;;;;;;;;;;;6157958;23;20316;-80
2022/12/07 21:11:21;;;;;;;;;;;;;;;;;;6155111;23;19991;-79
2022/12/07 21:13:46;;;;;;;;;;;;;;;;;;6156844;23;20279;-78
2022/12/07 21:16:22;;;;;;;;;;;;;;;;;;6157374;23;19987;-80
2022/12/07 21:18:47;;;;;;;;;;;;;;;;;;6157381;23;19932;-79
2022/12/07 21:21:15;;;;;;;;;;;;;;;;;;6156066;23;19909;-80
2022/12/07 21:23:41;;;;;;;;;;;;;;;;;;6157440;23;20007;-77
2022/12/07 21:26:10;;;;;;;;;;;;;;;;;;6157471;23;20320;-79
2022/12/07 21:28:36;;;;;;;;;;;;;;;;;;6157403;23;19940;-77
2022/12/07 21:31:01;;;;;;;;;;;;;;;;;;6157359;23;19915;-79
2022/12/07 21:33:26;;;;;;;;;;;;;;;;;;6157560;23;20328;-79
2022/12/07 21:35:52;;;;;;;;;;;;;;;;;;6157378;23;19976;-79
2022/12/07 21:38:17;;;;;;;;;;;;;;;;;;6157300;23;20343;-79
2022/12/07 21:40:43;;;;;;;;;;;;;;;;;;6157587;23;19932;-80
2022/12/07 21:43:08;;;;;;;;;;;;;;;;;;6157493;23;19915;-79
2022/12/07 21:45:33;;;;;;;;;;;;;;;;;;6157252;23;20305;-79
2022/12/07 21:47:59;;;;;;;;;;;;;;;;;;6157065;23;19912;-79
2022/12/07 21:50:24;;;;;;;;;;;;;;;;;;6157437;23;19914;-81
2022/12/07 21:52:49;;;;;;;;;;;;;;;;;;6157150;23;19908;-81
2022/12/07 21:55:15;;;;;;;;;;;;;;;;;;6157386;23;19909;-79
2022/12/07 21:57:40;;;;;;;;;;;;;;;;;;6157288;23;19915;-81
2022/12/07 22:00:06;;;;;;;;;;;;;;;;;;6157127;23;19909;-79
2022/12/07 22:02:31;;;;;;;;;;;;;;;;;;6157243;23;20231;-80
2022/12/07 22:04:57;;;;;;;;;;;;;;;;;;6157300;23;19904;-80
2022/12/07 22:07:22;;;;;;;;;;;;;;;;;;6157146;23;19908;-80
2022/12/07 22:09:47;;;;;;;;;;;;;;;;;;6157204;23;19915;-80
2022/12/07 22:12:12;;;;;;;;;;;;;;;;;;6157243;23;19932;-79
2022/12/07 22:17:22;;;;;;;;;;;;;;;;;;6156997;23;19951;-79
2022/12/07 22:19:47;;;;;;;;;;;;;;;;;;6157174;23;19913;-80
2022/12/07 22:22:14;;;;;;;;;;;;;;;;;;6157121;23;19916;-80
2022/12/07 22:24:39;;;;;;;;;;;;;;;;;;6157088;23;19908;-80
2022/12/07 22:27:04;;;;;;;;;;;;;;;;;;6156836;23;20339;-80
2022/12/07 22:29:30;;;;;;;;;;;;;;;;;;6155114;23;20011;-81
2022/12/07 22:31:55;;;;;;;;;;;;;;;;;;6157531;23;20225;-81
2022/12/07 22:34:20;;;;;;;;;;;;;;;;;;6157178;23;19983;-79
2022/12/07 22:36:46;;;;;;;;;;;;;;;;;;6156755;23;19954;-81
2022/12/07 22:39:11;;;;;;;;;;;;;;;;;;6157055;23;19909;-81
2022/12/07 22:41:36;;;;;;;;;;;;;;;;;;6157283;23;19908;-81
2022/12/07 22:44:04;;;;;;;;;;;;;;;;;;6156860;23;20283;-81
2022/12/07 22:46:29;;;;;;;;;;;;;;;;;;6156776;23;19908;-81
2022/12/07 22:48:54;;;;;;;;;;;;;;;;;;6156889;23;19955;-81
2022/12/07 22:51:24;;;;;;;;;;;;;;;;;;6157018;23;20343;-81
2022/12/07 22:53:49;;;;;;;;;;;;;;;;;;6157065;23;19931;-81
2022/12/07 22:56:15;;;;;;;;;;;;;;;;;;6156856;23;20324;-81
2022/12/07 22:58:40;;;;;;;;;;;;;;;;;;6156887;23;20406;-81
2022/12/07 23:01:06;;;;;;;;;;;;;;;;;;6157137;23;19909;-81
2022/12/07 23:03:32;;;;;;;;;;;;;;;;;;6156771;23;19909;-81
2022/12/07 23:05:58;;;;;;;;;;;;;;;;;;6156747;23;19919;-81
2022/12/07 23:08:23;;;;;;;;;;;;;;;;;;6156467;23;19909;-81
2022/12/07 23:10:48;;;;;;;;;;;;;;;;;;6156852;23;19908;-81
2022/12/07 23:13:36;;;;;;;;;;;;;;;;;;6156696;23;20320;-81
2022/12/07 23:16:08;;;;;;;;;;;;;;;;;;6156970;23;19909;-81
2022/12/07 23:18:33;;;;;;;;;;;;;;;;;;6157423;23;19916;-81
2022/12/07 23:20:58;;;;;;;;;;;;;;;;;;6156526;23;19912;-81
2022/12/07 23:23:24;;;;;;;;;;;;;;;;;;6156727;23;19909;-81
2022/12/07 23:25:49;;;;;;;;;;;;;;;;;;6156576;23;19909;-81
2022/12/07 23:28:15;;;;;;;;;;;;;;;;;;6156658;23;20284;-81
2022/12/07 23:30:40;;;;;;;;;;;;;;;;;;6156568;23;19919;-81
2022/12/07 23:33:05;;;;;;;;;;;;;;;;;;6156673;23;19915;-81
2022/12/07 23:35:31;;;;;;;;;;;;;;;;;;6156721;23;19979;-81
2022/12/07 23:37:56;;;;;;;;;;;;;;;;;;6156551;23;20272;-81
2022/12/07 23:40:21;;;;;;;;;;;;;;;;;;6156557;23;20236;-81
2022/12/07 23:42:47;;;;;;;;;;;;;;;;;;6156573;23;20273;-81
2022/12/07 23:45:12;;;;;;;;;;;;;;;;;;6156645;23;19909;-81
2022/12/07 23:47:37;;;;;;;;;;;;;;;;;;6156527;23;20240;-81
2022/12/07 23:50:03;;;;;;;;;;;;;;;;;;6156617;23;19963;-81
2022/12/07 23:52:29;;;;;;;;;;;;;;;;;;6156767;23;19909;-82
2022/12/07 23:54:54;;;;;;;;;;;;;;;;;;6156581;23;19987;-81
2022/12/07 23:57:20;;;;;;;;;;;;;;;;;;6156552;23;19919;-81
2022/12/07 23:59:45;;;;;;;;;;;;;;;;;;6155066;23;19915;-81
